createdAt,value
2023-05-13T00:00:54.083Z,6.37
2023-05-13T00:02:56.163Z,6.70
2023-05-13T00:04:58.381Z,6.23
2023-05-13T00:07:00.517Z,6.87
2023-05-13T00:09:03.054Z,6.23
2023-05-13T00:11:05.122Z,6.60
2023-05-13T00:13:07.145Z,6.30
2023-05-13T00:15:09.588Z,6.07
2023-05-13T00:17:11.529Z,7.30
2023-05-13T00:19:13.782Z,7.33
2023-05-13T00:21:15.881Z,7.37
2023-05-13T00:23:18.062Z,6.80
2023-05-13T00:25:20.095Z,6.77
2023-05-13T00:27:22.156Z,7.23
2023-05-13T00:29:24.411Z,7.23
2023-05-13T00:31:26.989Z,7.23
2023-05-13T00:33:29.130Z,7.50
2023-05-13T00:35:31.222Z,6.60
2023-05-13T00:37:33.232Z,7.47
2023-05-13T00:39:35.270Z,7.67
2023-05-13T00:41:37.774Z,6.00
2023-05-13T00:43:39.807Z,7.00
2023-05-13T00:45:41.892Z,6.63
2023-05-13T00:47:44.368Z,6.93
2023-05-13T00:49:46.606Z,7.53
2023-05-13T00:51:48.721Z,7.00
2023-05-13T00:53:51.597Z,6.90
2023-05-13T00:55:53.603Z,6.80
2023-05-13T00:57:55.765Z,7.03
2023-05-13T00:59:57.744Z,6.70
2023-05-13T01:02:32.895Z,7.13
2023-05-13T01:04:45.180Z,6.80
2023-05-13T01:07:06.190Z,7.50
2023-05-13T01:09:26.362Z,7.70
2023-05-13T01:11:31.118Z,7.00
2023-05-13T01:13:38.220Z,7.60
2023-05-13T01:16:02.694Z,7.53
2023-05-13T01:18:11.058Z,8.10
2023-05-13T01:20:13.251Z,7.70
2023-05-13T01:22:15.414Z,7.50
2023-05-13T01:24:17.489Z,7.37
2023-05-13T01:26:20.731Z,7.33
2023-05-13T01:28:23.069Z,7.17
2023-05-13T01:30:28.209Z,7.10
2023-05-13T01:32:30.813Z,7.17
2023-05-13T01:34:33.783Z,7.50
2023-05-13T01:36:36.455Z,7.73
2023-05-13T01:38:39.876Z,7.33
2023-05-13T01:40:42.830Z,7.63
2023-05-13T01:42:44.900Z,8.00
2023-05-13T01:44:46.926Z,7.33
2023-05-13T01:46:50.617Z,8.50
2023-05-13T01:48:53.300Z,7.63
2023-05-13T01:50:56.091Z,8.37
2023-05-13T01:52:58.986Z,8.40
2023-05-13T01:55:02.273Z,8.17
2023-05-13T01:57:05.761Z,8.40
2023-05-13T01:59:10.158Z,8.40
2023-05-13T02:01:12.758Z,8.30
2023-05-13T02:03:14.885Z,8.40
2023-05-13T02:05:17.165Z,7.80
2023-05-13T02:07:19.799Z,8.30
2023-05-13T02:09:22.717Z,8.37
2023-05-13T02:11:24.814Z,8.13
2023-05-13T02:13:26.838Z,8.80
2023-05-13T02:15:28.986Z,8.57
2023-05-13T02:17:31.217Z,8.07
2023-05-13T02:19:34.700Z,8.23
2023-05-13T02:21:36.734Z,7.63
2023-05-13T02:23:38.883Z,8.17
2023-05-13T02:25:42.144Z,8.23
2023-05-13T02:27:44.323Z,8.20
2023-05-13T02:29:46.398Z,8.30
2023-05-13T02:31:48.623Z,8.30
2023-05-13T02:33:50.909Z,8.10
2023-05-13T02:35:54.477Z,8.70
2023-05-13T02:37:57.248Z,7.93
2023-05-13T02:39:59.274Z,8.23
2023-05-13T02:42:01.447Z,8.07
2023-05-13T02:44:07.179Z,8.70
2023-05-13T02:46:09.559Z,8.13
2023-05-13T02:48:11.709Z,9.40
2023-05-13T02:50:13.860Z,8.80
2023-05-13T02:52:17.323Z,8.47
2023-05-13T02:54:19.302Z,8.10
2023-05-13T02:56:21.398Z,8.77
2023-05-13T02:58:23.621Z,8.93
2023-05-13T03:00:25.973Z,8.23
2023-05-13T03:02:28.427Z,9.30
2023-05-13T03:04:30.842Z,8.40
2023-05-13T03:06:32.988Z,9.60
2023-05-13T03:08:35.042Z,9.23
2023-05-13T03:10:37.163Z,9.27
2023-05-13T03:12:39.533Z,8.53
2023-05-13T03:14:42.912Z,8.90
2023-05-13T03:16:45.188Z,8.43
2023-05-13T03:18:49.217Z,10.03
2023-05-13T03:20:52.213Z,9.60
2023-05-13T03:22:54.315Z,9.10
2023-05-13T03:24:57.261Z,9.20
2023-05-13T03:27:03.958Z,9.27
2023-05-13T03:29:06.691Z,8.70
2023-05-13T03:31:10.608Z,10.10
2023-05-13T03:33:14.401Z,10.67
2023-05-13T03:35:16.562Z,10.20
2023-05-13T03:37:18.798Z,10.80
2023-05-13T03:39:20.984Z,10.10
2023-05-13T03:41:23.263Z,9.30
2023-05-13T03:43:25.741Z,10.47
2023-05-13T03:45:32.865Z,9.97
2023-05-13T03:47:40.089Z,9.80
2023-05-13T03:49:48.056Z,9.70
2023-05-13T03:51:50.439Z,9.73
2023-05-13T03:53:52.465Z,9.53
2023-05-13T03:55:54.492Z,10.83
2023-05-13T03:57:56.657Z,9.70
2023-05-13T03:59:58.709Z,9.07
2023-05-13T04:02:00.905Z,10.03
2023-05-13T04:04:02.950Z,9.97
2023-05-13T04:06:07.455Z,9.00
2023-05-13T04:08:11.254Z,9.27
2023-05-13T04:10:15.381Z,9.93
2023-05-13T04:12:18.221Z,8.93
2023-05-13T04:14:20.957Z,8.80
2023-05-13T04:16:22.975Z,9.43
2023-05-13T04:18:25.014Z,9.73
2023-05-13T04:20:27.252Z,10.00
2023-05-13T04:22:30.470Z,10.10
2023-05-13T04:24:32.567Z,8.97
2023-05-13T04:26:34.669Z,10.50
2023-05-13T04:28:36.710Z,9.60
2023-05-13T04:30:39.023Z,9.13
2023-05-13T04:32:41.055Z,9.07
2023-05-13T04:34:44.145Z,9.73
2023-05-13T04:36:46.659Z,8.43
2023-05-13T04:38:49.313Z,9.07
2023-05-13T04:40:52.480Z,8.17
2023-05-13T04:43:04.568Z,9.07
2023-05-13T04:45:11.292Z,8.87
2023-05-13T04:47:13.793Z,8.60
2023-05-13T04:49:15.880Z,8.53
2023-05-13T04:51:18.435Z,8.20
2023-05-13T04:53:21.198Z,7.90
2023-05-13T04:55:23.719Z,7.60
2023-05-13T04:57:26.211Z,7.67
2023-05-13T04:59:28.248Z,8.23
2023-05-13T05:01:30.349Z,7.97
2023-05-13T05:03:32.537Z,8.53
2023-05-13T05:05:35.031Z,8.27
2023-05-13T05:07:40.556Z,8.90
2023-05-13T05:09:43.129Z,8.40
2023-05-13T05:11:45.611Z,10.10
2023-05-13T05:13:48.407Z,8.57
2023-05-13T05:15:52.211Z,8.37
2023-05-13T05:17:54.386Z,7.80
2023-05-13T05:19:56.493Z,7.97
2023-05-13T05:21:59.485Z,8.13
2023-05-13T05:24:01.977Z,7.50
2023-05-13T05:26:11.707Z,8.07
2023-05-13T05:28:17.301Z,7.27
2023-05-13T05:30:20.105Z,7.33
2023-05-13T05:32:31.954Z,7.67
2023-05-13T05:34:34.052Z,8.10
2023-05-13T05:36:38.106Z,6.83
2023-05-13T05:38:41.739Z,6.53
2023-05-13T05:40:45.519Z,6.77
2023-05-13T05:42:47.551Z,7.23
2023-05-13T05:44:49.607Z,7.30
2023-05-13T05:46:52.764Z,7.60
2023-05-13T05:48:54.924Z,6.60
2023-05-13T05:50:57.447Z,7.67
2023-05-13T05:53:07.058Z,7.33
2023-05-13T05:55:11.675Z,8.00
2023-05-13T05:57:13.888Z,7.27
2023-05-13T05:59:15.948Z,7.10
2023-05-13T06:01:18.072Z,7.23
2023-05-13T06:03:21.017Z,7.20
2023-05-13T06:05:23.595Z,7.63
2023-05-13T06:07:25.824Z,7.07
2023-05-13T06:09:28.185Z,7.40
2023-05-13T06:11:30.278Z,6.97
2023-05-13T06:13:32.228Z,7.00
2023-05-13T06:15:34.426Z,7.10
2023-05-13T06:17:37.287Z,7.27
2023-05-13T06:19:43.790Z,6.90
2023-05-13T06:21:45.867Z,7.37
2023-05-13T06:23:47.863Z,6.70
2023-05-13T06:25:49.904Z,6.43
2023-05-13T06:27:52.013Z,6.60
2023-05-13T06:29:56.128Z,6.97
2023-05-13T06:31:58.171Z,7.03
2023-05-13T06:34:00.259Z,6.47
2023-05-13T06:36:02.645Z,7.37
2023-05-13T06:38:04.750Z,7.50
2023-05-13T06:40:07.655Z,7.07
2023-05-13T06:42:14.698Z,6.90
2023-05-13T06:44:20.990Z,6.87
2023-05-13T06:46:23.081Z,7.20
2023-05-13T06:48:25.357Z,7.43
2023-05-13T06:50:27.469Z,7.00
2023-05-13T06:52:31.135Z,8.10
2023-05-13T06:54:33.218Z,7.13
2023-05-13T06:56:35.204Z,5.80
2023-05-13T06:58:37.344Z,6.33
2023-05-13T07:00:41.039Z,6.70
2023-05-13T07:02:43.440Z,6.63
2023-05-13T07:04:45.524Z,6.90
2023-05-13T07:06:48.923Z,6.20
2023-05-13T07:08:50.955Z,6.40
2023-05-13T07:10:53.033Z,6.30
2023-05-13T07:12:55.537Z,6.73
2023-05-13T07:14:57.590Z,5.77
2023-05-13T07:16:59.659Z,6.67
2023-05-13T07:19:01.776Z,6.60
2023-05-13T07:21:04.274Z,7.10
2023-05-13T07:23:06.381Z,6.63
2023-05-13T07:25:08.839Z,6.90
2023-05-13T07:27:11.092Z,6.33
2023-05-13T07:29:13.116Z,6.67
2023-05-13T07:31:17.496Z,6.47
2023-05-13T07:33:19.793Z,6.20
2023-05-13T07:35:22.260Z,6.70
2023-05-13T07:37:27.417Z,5.87
2023-05-13T07:39:29.582Z,6.17
2023-05-13T07:41:31.849Z,7.17
2023-05-13T07:43:35.064Z,6.00
2023-05-13T07:45:39.265Z,5.70
2023-05-13T07:47:43.033Z,6.20
2023-05-13T07:49:46.576Z,5.93
2023-05-13T07:51:48.649Z,5.90
2023-05-13T07:53:52.716Z,5.53
2023-05-13T07:55:55.006Z,5.40
2023-05-13T07:57:57.056Z,5.90
2023-05-13T07:59:59.099Z,5.90
2023-05-13T08:02:01.280Z,5.40
2023-05-13T08:04:03.579Z,5.70
2023-05-13T08:06:05.810Z,5.87
2023-05-13T08:08:07.905Z,5.27
2023-05-13T08:10:10.507Z,6.03
2023-05-13T08:12:12.596Z,5.50
2023-05-13T08:14:14.632Z,5.10
2023-05-13T08:16:17.210Z,5.50
2023-05-13T08:18:19.727Z,5.00
2023-05-13T08:20:23.146Z,5.20
2023-05-13T08:22:26.570Z,5.00
2023-05-13T08:24:30.272Z,5.13
2023-05-13T08:26:33.746Z,5.13
2023-05-13T08:28:35.788Z,4.90
2023-05-13T08:30:40.729Z,4.73
2023-05-13T08:32:42.781Z,4.83
2023-05-13T08:34:44.903Z,4.50
2023-05-13T08:36:47.020Z,4.50
2023-05-13T08:38:49.091Z,4.97
2023-05-13T08:40:51.096Z,5.20
2023-05-13T08:42:55.767Z,4.13
2023-05-13T08:44:58.312Z,4.73
2023-05-13T08:47:09.249Z,5.10
2023-05-13T08:49:11.490Z,5.10
2023-05-13T08:51:13.600Z,4.80
2023-05-13T08:53:17.151Z,5.43
2023-05-13T08:55:19.564Z,4.90
2023-05-13T08:57:22.069Z,14.03
2023-05-13T08:59:24.118Z,14.23
2023-05-13T09:01:26.884Z,6.37
2023-05-13T09:03:29.244Z,5.90
2023-05-13T09:05:31.991Z,4.40
2023-05-13T09:07:38.344Z,4.60
2023-05-13T09:09:40.430Z,4.10
2023-05-13T09:11:48.569Z,4.30
2023-05-13T09:14:01.818Z,4.50
2023-05-13T09:16:07.176Z,5.53
2023-05-13T09:18:09.512Z,4.70
2023-05-13T09:20:13.831Z,4.90
2023-05-13T09:22:18.731Z,4.40
2023-05-13T09:24:24.038Z,4.90
2023-05-13T09:26:29.721Z,4.83
2023-05-13T09:28:34.198Z,4.30
2023-05-13T09:30:42.605Z,4.17
2023-05-13T09:33:03.772Z,3.90
2023-05-13T09:35:19.196Z,3.90
2023-05-13T09:37:24.647Z,4.30
2023-05-13T09:39:26.877Z,4.27
2023-05-13T09:41:30.940Z,5.30
2023-05-13T09:43:33.501Z,4.03
2023-05-13T09:45:36.235Z,4.87
2023-05-13T09:47:38.728Z,4.50
2023-05-13T09:49:41.710Z,3.87
2023-05-13T09:51:46.696Z,4.40
2023-05-13T09:53:48.934Z,7.43
2023-05-13T09:55:53.630Z,4.60
2023-05-13T09:57:55.833Z,3.80
2023-05-13T10:00:03.237Z,4.73
2023-05-13T10:02:17.412Z,4.30
2023-05-13T10:04:19.801Z,4.20
2023-05-13T10:06:31.071Z,4.60
2023-05-13T10:08:33.739Z,5.17
2023-05-13T10:10:36.448Z,4.80
2023-05-13T10:12:39.730Z,4.50
2023-05-13T10:14:42.194Z,4.70
2023-05-13T10:16:45.517Z,7.43
2023-05-13T10:18:47.896Z,4.53
2023-05-13T10:20:53.600Z,4.53
2023-05-13T10:22:57.345Z,4.43
2023-05-13T10:25:00.737Z,3.90
2023-05-13T10:27:03.674Z,4.13
2023-05-13T10:29:05.946Z,3.87
2023-05-13T10:31:08.234Z,4.20
2023-05-13T10:33:10.945Z,3.93
2023-05-13T10:35:17.341Z,4.47
2023-05-13T10:38:02.917Z,4.20
2023-05-13T10:40:29.970Z,4.27
2023-05-13T10:42:32.142Z,4.13
2023-05-13T10:44:35.664Z,4.57
2023-05-13T10:46:39.796Z,4.33
2023-05-13T10:48:55.903Z,4.40
2023-05-13T10:51:02.702Z,4.13
2023-05-13T10:53:19.520Z,5.43
2023-05-13T10:55:24.315Z,4.67
2023-05-13T10:57:35.914Z,4.70
2023-05-13T11:00:17.065Z,4.13
2023-05-13T11:02:23.444Z,4.27
2023-05-13T11:04:25.847Z,3.97
2023-05-13T11:06:34.718Z,4.10
2023-05-13T11:08:40.864Z,3.90
2023-05-13T11:10:43.085Z,4.20
2023-05-13T11:13:14.152Z,4.47
2023-05-13T11:15:22.374Z,4.20
2023-05-13T11:17:24.680Z,3.40
2023-05-13T11:19:31.746Z,3.93
2023-05-13T11:21:36.273Z,3.90
2023-05-13T11:23:58.589Z,6.27
2023-05-13T11:26:17.084Z,4.50
2023-05-13T11:28:58.602Z,3.70
2023-05-13T11:31:16.044Z,4.00
2023-05-13T11:33:18.404Z,4.00
2023-05-13T11:35:27.400Z,4.13
2023-05-13T11:37:32.316Z,4.77
2023-05-13T11:39:35.147Z,4.00
2023-05-13T11:41:39.950Z,3.87
2023-05-13T11:43:42.862Z,3.90
2023-05-13T11:45:45.670Z,3.90
2023-05-13T11:47:47.972Z,3.70
2023-05-13T11:49:52.925Z,3.80
2023-05-13T11:51:55.272Z,3.73
2023-05-13T11:54:04.078Z,3.80
2023-05-13T11:56:12.922Z,3.90
2023-05-13T11:58:18.140Z,4.57
2023-05-13T12:00:31.053Z,4.43
2023-05-13T12:02:38.654Z,3.90
2023-05-13T12:04:41.115Z,3.97
2023-05-13T12:06:46.169Z,3.80
2023-05-13T12:08:48.538Z,4.30
2023-05-13T12:10:59.729Z,3.70
2023-05-13T12:13:02.670Z,3.87
2023-05-13T12:15:07.921Z,3.60
2023-05-13T12:17:10.110Z,4.10
2023-05-13T12:19:12.567Z,3.73
2023-05-13T12:21:18.065Z,3.83
2023-05-13T12:23:20.260Z,4.33
2023-05-13T12:25:42.013Z,14.87
2023-05-13T12:27:54.287Z,3.73
2023-05-13T12:29:56.647Z,4.00
2023-05-13T12:32:06.154Z,4.97
2023-05-13T12:34:08.415Z,3.60
2023-05-13T12:36:21.699Z,3.60
2023-05-13T12:38:24.856Z,3.70
2023-05-13T12:40:27.231Z,3.40
2023-05-13T12:42:29.401Z,3.47
2023-05-13T12:44:31.979Z,3.70
2023-05-13T12:46:35.181Z,3.60
2023-05-13T12:48:37.552Z,3.07
2023-05-13T12:50:39.840Z,4.23
2023-05-13T12:52:42.123Z,3.77
2023-05-13T12:54:44.240Z,3.70
2023-05-13T12:56:46.612Z,3.70
2023-05-13T12:58:50.157Z,3.77
2023-05-13T13:00:52.390Z,3.47
2023-05-13T13:02:54.770Z,3.63
2023-05-13T13:04:57.020Z,3.20
2023-05-13T13:06:59.204Z,3.73
2023-05-13T13:09:01.427Z,3.60
2023-05-13T13:11:04.450Z,3.97
2023-05-13T13:13:09.799Z,3.53
2023-05-13T13:15:12.520Z,3.67
2023-05-13T13:17:14.835Z,3.30
2023-05-13T13:19:17.216Z,3.87
2023-05-13T13:21:19.504Z,3.53
2023-05-13T13:23:21.713Z,3.87
2023-05-13T13:25:24.261Z,4.10
2023-05-13T13:27:26.596Z,3.70
2023-05-13T13:29:28.813Z,3.80
2023-05-13T13:31:31.057Z,3.23
2023-05-13T13:33:40.532Z,3.80
2023-05-13T13:35:43.871Z,3.83
2023-05-13T13:37:46.123Z,3.80
2023-05-13T13:39:48.456Z,3.73
2023-05-13T13:41:57.283Z,3.40
2023-05-13T13:44:02.304Z,4.03
2023-05-13T13:46:04.567Z,3.90
2023-05-13T13:48:07.086Z,4.20
2023-05-13T13:50:09.817Z,4.13
2023-05-13T13:52:12.105Z,4.00
2023-05-13T13:54:14.261Z,3.70
2023-05-13T13:56:16.537Z,3.57
2023-05-13T13:58:18.694Z,4.00
2023-05-13T14:00:21.791Z,3.83
2023-05-13T14:02:24.429Z,3.93
2023-05-13T14:04:27.848Z,4.33
2023-05-13T14:06:30.059Z,4.20
2023-05-13T14:08:32.252Z,4.33
2023-05-13T14:10:34.439Z,3.83
2023-05-13T14:12:37.662Z,3.73
2023-05-13T14:14:39.855Z,3.30
2023-05-13T14:16:42.094Z,3.50
2023-05-13T14:18:44.376Z,3.90
2023-05-13T14:20:47.676Z,3.97
2023-05-13T14:22:49.895Z,3.90
2023-05-13T14:24:52.869Z,3.90
2023-05-13T14:26:55.230Z,3.97
2023-05-13T14:28:59.728Z,4.40
2023-05-13T14:31:02.083Z,4.07
2023-05-13T14:33:04.378Z,3.50
2023-05-13T14:35:07.274Z,4.50
2023-05-13T14:37:09.515Z,4.20
2023-05-13T14:39:12.238Z,4.30
2023-05-13T14:41:19.829Z,3.47
2023-05-13T14:43:23.001Z,3.57
2023-05-13T14:45:25.349Z,3.43
2023-05-13T14:47:27.611Z,4.20
2023-05-13T14:49:32.724Z,3.90
2023-05-13T14:51:35.476Z,3.60
2023-05-13T14:53:38.337Z,3.90
2023-05-13T14:55:40.603Z,3.30
2023-05-13T14:57:43.377Z,3.90
2023-05-13T14:59:45.655Z,4.20
2023-05-13T15:01:47.949Z,3.57
2023-05-13T15:03:50.166Z,4.03
2023-05-13T15:05:52.474Z,4.60
2023-05-13T15:07:54.682Z,3.70
2023-05-13T15:09:56.922Z,3.80
2023-05-13T15:11:59.133Z,15.10
2023-05-13T15:14:01.913Z,9.10
2023-05-13T15:16:04.872Z,3.33
2023-05-13T15:18:09.849Z,3.50
2023-05-13T15:20:12.584Z,3.67
2023-05-13T15:22:16.892Z,3.33
2023-05-13T15:24:19.245Z,3.80
2023-05-13T15:26:22.360Z,3.90
2023-05-13T15:28:24.760Z,3.53
2023-05-13T15:30:26.937Z,3.40
2023-05-13T15:32:30.205Z,2.83
2023-05-13T15:34:32.512Z,3.53
2023-05-13T15:36:37.704Z,3.30
2023-05-13T15:38:39.935Z,3.40
2023-05-13T15:40:42.140Z,2.80
2023-05-13T15:42:48.336Z,2.83
2023-05-13T15:44:50.824Z,3.80
2023-05-13T15:46:53.142Z,3.73
2023-05-13T15:48:55.528Z,2.83
2023-05-13T15:50:57.772Z,3.80
2023-05-13T15:53:00.223Z,3.37
2023-05-13T15:55:02.492Z,4.23
2023-05-13T15:57:04.949Z,4.90
2023-05-13T15:59:07.236Z,30.63
2023-05-13T16:01:09.506Z,4.47
2023-05-13T16:03:11.750Z,3.00
2023-05-13T16:05:15.512Z,3.73
2023-05-13T16:07:17.764Z,3.40
2023-05-13T16:09:24.369Z,3.10
2023-05-13T16:11:26.548Z,4.30
2023-05-13T16:13:28.718Z,3.00
2023-05-13T16:15:31.627Z,3.40
2023-05-13T16:17:34.650Z,3.00
2023-05-13T16:19:36.925Z,3.43
2023-05-13T16:21:41.584Z,4.23
2023-05-13T16:23:43.922Z,4.50
2023-05-13T16:25:46.743Z,4.10
2023-05-13T16:27:49.000Z,3.23
2023-05-13T16:29:52.025Z,3.73
2023-05-13T16:31:57.185Z,3.07
2023-05-13T16:33:59.486Z,3.00
2023-05-13T16:36:01.733Z,3.20
2023-05-13T16:38:03.967Z,3.07
2023-05-13T16:40:06.940Z,2.93
2023-05-13T16:42:09.251Z,2.90
2023-05-13T16:44:11.477Z,2.90
2023-05-13T16:46:15.287Z,2.87
2023-05-13T16:48:17.761Z,3.57
2023-05-13T16:50:19.949Z,2.93
2023-05-13T16:52:23.055Z,3.40
2023-05-13T16:54:25.580Z,3.03
2023-05-13T16:56:27.810Z,4.80
2023-05-13T16:58:29.992Z,4.70
2023-05-13T17:00:35.226Z,2.80
2023-05-13T17:02:37.450Z,3.00
2023-05-13T17:04:39.698Z,3.37
2023-05-13T17:06:42.208Z,3.03
2023-05-13T17:08:44.451Z,2.40
2023-05-13T17:10:46.658Z,3.03
2023-05-13T17:12:51.113Z,3.80
2023-05-13T17:14:53.426Z,3.17
2023-05-13T17:17:03.341Z,3.10
2023-05-13T17:19:05.686Z,2.57
2023-05-13T17:21:10.889Z,3.10
2023-05-13T17:23:13.137Z,2.80
2023-05-13T17:25:15.603Z,3.07
2023-05-13T17:27:17.807Z,2.80
2023-05-13T17:29:19.979Z,3.23
2023-05-13T17:31:23.560Z,3.07
2023-05-13T17:33:25.775Z,3.00
2023-05-13T17:35:30.723Z,2.70
2023-05-13T17:37:32.992Z,3.30
2023-05-13T17:39:35.291Z,3.00
2023-05-13T17:41:37.545Z,3.97
2023-05-13T17:43:39.752Z,3.40
2023-05-13T17:45:42.358Z,3.00
2023-05-13T17:47:44.900Z,2.63
2023-05-13T17:49:47.170Z,2.93
2023-05-13T17:51:49.399Z,2.50
2023-05-13T17:53:51.677Z,2.90
2023-05-13T17:55:53.894Z,2.80
2023-05-13T17:57:56.612Z,3.53
2023-05-13T17:59:59.138Z,2.87
2023-05-13T18:02:01.492Z,3.13
2023-05-13T18:04:03.719Z,3.03
2023-05-13T18:06:06.405Z,2.97
2023-05-13T18:08:08.776Z,4.60
2023-05-13T18:10:11.113Z,10.13
2023-05-13T18:12:19.132Z,10.40
2023-05-13T18:14:21.425Z,6.57
2023-05-13T18:16:23.726Z,5.50
2023-05-13T18:18:25.982Z,4.63
2023-05-13T18:20:31.487Z,8.37
2023-05-13T18:22:34.853Z,10.77
2023-05-13T18:24:43.182Z,8.17
2023-05-13T18:26:45.349Z,7.83
2023-05-13T18:28:47.654Z,9.27
2023-05-13T18:30:49.941Z,9.37
2023-05-13T18:32:52.297Z,6.97
2023-05-13T18:34:57.559Z,7.17
2023-05-13T18:36:59.796Z,4.13
2023-05-13T18:39:02.105Z,3.80
2023-05-13T18:41:05.041Z,4.97
2023-05-13T18:43:09.805Z,5.13
2023-05-13T18:45:12.176Z,10.03
2023-05-13T18:47:14.363Z,10.27
2023-05-13T18:49:19.806Z,12.40
2023-05-13T18:51:22.036Z,14.40
2023-05-13T18:53:24.213Z,13.83
2023-05-13T18:55:26.552Z,13.20
2023-05-13T18:57:28.810Z,19.37
2023-05-13T18:59:31.402Z,22.93
2023-05-13T19:01:42.171Z,19.47
2023-05-13T19:03:44.584Z,10.73
2023-05-13T19:05:46.887Z,12.10
2023-05-13T19:07:49.139Z,13.70
2023-05-13T19:09:51.375Z,15.53
2023-05-13T19:11:56.200Z,19.00
2023-05-13T19:13:58.633Z,18.17
2023-05-13T19:16:01.143Z,12.40
2023-05-13T19:18:03.414Z,11.20
2023-05-13T19:20:16.431Z,9.93
2023-05-13T19:22:18.614Z,10.63
2023-05-13T19:24:20.906Z,10.00
2023-05-13T19:26:23.104Z,10.23
2023-05-13T19:28:26.674Z,12.57
2023-05-13T19:30:28.856Z,15.40
2023-05-13T19:32:31.098Z,22.57
2023-05-13T19:34:33.399Z,22.73
2023-05-13T19:36:35.749Z,22.10
2023-05-13T19:38:37.959Z,19.50
2023-05-13T19:40:40.167Z,18.00
2023-05-13T19:42:42.356Z,13.33
2023-05-13T19:44:44.555Z,15.27
2023-05-13T19:46:47.181Z,13.97
2023-05-13T19:48:49.435Z,13.53
2023-05-13T19:50:53.498Z,12.93
2023-05-13T19:52:56.043Z,10.10
2023-05-13T19:54:58.669Z,9.60
2023-05-13T19:57:00.878Z,10.00
2023-05-13T19:59:03.118Z,7.93
2023-05-13T20:01:05.283Z,9.87
2023-05-13T20:03:07.580Z,10.43
2023-05-13T20:05:10.296Z,10.00
2023-05-13T20:07:12.470Z,9.77
2023-05-13T20:09:14.826Z,8.73
2023-05-13T20:11:17.196Z,9.10
2023-05-13T20:13:19.469Z,9.73
2023-05-13T20:15:22.138Z,9.60
2023-05-13T20:17:24.848Z,10.23
2023-05-13T20:19:27.231Z,10.17
2023-05-13T20:21:29.528Z,13.03
2023-05-13T20:23:31.792Z,14.23
2023-05-13T20:25:34.151Z,17.63
2023-05-13T20:27:36.597Z,16.37
2023-05-13T20:29:43.456Z,19.30
2023-05-13T20:31:45.846Z,15.60
2023-05-13T20:33:47.979Z,14.27
2023-05-13T20:35:50.244Z,12.33
2023-05-13T20:37:52.475Z,12.83
2023-05-13T20:39:54.748Z,9.73
2023-05-13T20:41:57.181Z,9.00
2023-05-13T20:43:59.325Z,8.17
2023-05-13T20:46:07.094Z,8.50
2023-05-13T20:48:09.500Z,8.47
2023-05-13T20:50:12.234Z,9.27
2023-05-13T20:52:14.539Z,10.03
2023-05-13T20:54:16.803Z,11.07
2023-05-13T20:56:19.049Z,8.87
2023-05-13T20:58:21.286Z,9.57
2023-05-13T21:00:23.800Z,8.77
2023-05-13T21:02:26.366Z,9.80
2023-05-13T21:04:28.760Z,9.10
2023-05-13T21:06:30.937Z,9.60
2023-05-13T21:08:36.872Z,9.77
2023-05-13T21:10:39.045Z,8.63
2023-05-13T21:12:41.300Z,8.90
2023-05-13T21:14:43.516Z,8.97
2023-05-13T21:16:46.045Z,10.20
2023-05-13T21:18:48.228Z,8.80
2023-05-13T21:20:50.581Z,10.00
2023-05-13T21:22:52.712Z,9.60
2023-05-13T21:24:54.884Z,9.43
2023-05-13T21:26:57.129Z,10.10
2023-05-13T21:28:59.334Z,9.97
2023-05-13T21:31:01.605Z,10.13
2023-05-13T21:33:03.930Z,11.20
2023-05-13T21:35:06.890Z,11.30
2023-05-13T21:37:09.046Z,10.00
2023-05-13T21:39:11.190Z,10.40
2023-05-13T21:41:13.447Z,10.10
2023-05-13T21:43:15.947Z,9.40
2023-05-13T21:45:18.285Z,11.07
2023-05-13T21:47:20.680Z,9.37
2023-05-13T21:49:23.763Z,11.80
2023-05-13T21:51:26.114Z,13.17
2023-05-13T21:53:28.384Z,11.83
2023-05-13T21:55:34.755Z,12.00
2023-05-13T21:57:37.010Z,12.00
2023-05-13T21:59:39.333Z,11.27
2023-05-13T22:01:41.607Z,9.60
2023-05-13T22:03:43.830Z,9.90
2023-05-13T22:05:46.067Z,10.63
2023-05-13T22:07:48.256Z,10.40
2023-05-13T22:09:50.587Z,10.03
2023-05-13T22:11:52.948Z,9.63
2023-05-13T22:13:55.254Z,9.50
2023-05-13T22:15:57.518Z,9.20
2023-05-13T22:17:59.728Z,9.50
2023-05-13T22:20:02.187Z,10.57
2023-05-13T22:22:04.533Z,11.70
2023-05-13T22:24:08.268Z,13.43
2023-05-13T22:26:10.435Z,12.73
2023-05-13T22:28:13.101Z,12.40
2023-05-13T22:30:15.521Z,12.27
2023-05-13T22:32:17.662Z,13.60
2023-05-13T22:34:19.803Z,12.60
2023-05-13T22:36:21.892Z,13.57
2023-05-13T22:38:23.908Z,12.87
2023-05-13T22:40:26.195Z,13.77
2023-05-13T22:42:28.345Z,13.87
2023-05-13T22:44:30.299Z,14.17
2023-05-13T22:46:32.418Z,13.70
2023-05-13T22:48:34.645Z,12.73
2023-05-13T22:50:36.732Z,12.97
2023-05-13T22:52:39.099Z,12.37
2023-05-13T22:54:41.521Z,13.50
2023-05-13T22:56:43.651Z,13.13
2023-05-13T22:58:46.215Z,12.10
2023-05-13T23:00:49.297Z,15.20
2023-05-13T23:02:51.422Z,13.57
2023-05-13T23:04:53.418Z,13.67
2023-05-13T23:06:55.440Z,14.97
2023-05-13T23:08:57.850Z,13.20
2023-05-13T23:11:00.092Z,13.77
2023-05-13T23:13:05.631Z,13.30
2023-05-13T23:15:08.427Z,12.50
2023-05-13T23:17:10.475Z,13.60
2023-05-13T23:19:12.576Z,12.60
2023-05-13T23:21:14.709Z,12.03
2023-05-13T23:23:16.812Z,11.40
2023-05-13T23:25:19.041Z,11.10
2023-05-13T23:27:21.738Z,11.00
2023-05-13T23:29:27.481Z,13.50
2023-05-13T23:31:29.618Z,11.80
2023-05-13T23:33:31.673Z,10.93
2023-05-13T23:35:33.957Z,11.07
2023-05-13T23:37:36.527Z,9.80
2023-05-13T23:39:38.501Z,10.37
2023-05-13T23:41:40.599Z,10.33
2023-05-13T23:43:42.613Z,9.53
2023-05-13T23:45:45.873Z,9.13
2023-05-13T23:47:47.913Z,10.33
2023-05-13T23:49:49.943Z,10.13
2023-05-13T23:51:52.050Z,11.17
2023-05-13T23:53:55.484Z,9.80
2023-05-13T23:55:57.670Z,10.23
2023-05-13T23:57:59.654Z,9.70
